Castanheira, Brazil
Current Conditions -  °F | °C
As of 1:00 AM on Tuesday 21 Oct 2014 (Local Time) from SBVH Reporting Station
Clear Clear  
Wind Chill: 72°   Ceiling: Unl
Heat Index: 72°   Visibility: 6mi
Dew Point: 68°   Wind: 2mph
Humidity: 88%   Direction: 120°ESE
Pressure: 30"   Gusts: NA
Location:  11.13°S, 58.6°W
Report Text: SBVH 210400Z 12002KT CAVOK 22/20 Q1016
Loading
Personal Weather Stations






























Interactive Weather Map
Tropical Storm Tracking
New forecast layout! Learn more

10-Day Weather Forecast

Advertisements
Track Severe Weather on mobile